Time;durP1;ratioP1;P1;durP2;ratioP2;P2;SDS_P1;SDS_P2;PMS_P1;PMS_P2;Temp;Humidity;BMP_temperature;BMP_pressure;BME280_temperature;BME280_humidity;BME280_pressure;Samples;Min_cycle;Max_cycle;Signal;HPM_P1;HPM_P2
2023/07/24 00:02:24;;;;;;;11.82;10.55;;;18.00;99.90;;;;;;4989842;28;20041;-80
2023/07/24 00:04:49;;;;;;;12.65;11.18;;;17.90;99.90;;;;;;4961674;28;20142;-80
2023/07/24 00:07:15;;;;;;;14.13;11.45;;;17.90;99.90;;;;;;4981503;28;20043;-80
2023/07/24 00:09:41;;;;;;;13.35;10.90;;;17.90;99.90;;;;;;4974629;28;20075;-80
2023/07/24 00:12:07;;;;;;;12.77;10.80;;;17.90;99.90;;;;;;4991863;28;20122;-80
2023/07/24 00:14:32;;;;;;;12.38;11.05;;;17.80;99.90;;;;;;4948450;28;20459;-80
2023/07/24 00:16:58;;;;;;;14.18;11.55;;;17.80;99.90;;;;;;4974403;28;20038;-80
2023/07/24 00:19:23;;;;;;;12.07;10.77;;;17.70;99.90;;;;;;5037416;28;20036;-80
2023/07/24 00:21:49;;;;;;;13.48;11.45;;;17.70;99.90;;;;;;5022093;28;20028;-80
2023/07/24 00:24:14;;;;;;;12.90;11.50;;;17.70;99.90;;;;;;4963958;28;20429;-80
2023/07/24 00:26:40;;;;;;;14.02;11.50;;;17.70;99.90;;;;;;5016565;28;20071;-80
2023/07/24 00:29:06;;;;;;;13.18;11.77;;;17.60;99.90;;;;;;4971142;28;20039;-80
2023/07/24 00:31:31;;;;;;;13.73;11.68;;;17.50;99.90;;;;;;5006981;28;20047;-80
2023/07/24 00:34:00;;;;;;;14.00;11.80;;;17.50;99.90;;;;;;5030867;28;20095;-80
2023/07/24 00:36:26;;;;;;;13.80;11.65;;;17.50;99.90;;;;;;4985781;28;20556;-80
2023/07/24 00:38:51;;;;;;;14.27;11.80;;;17.50;99.90;;;;;;4965565;28;20035;-80
2023/07/24 00:41:17;;;;;;;12.32;11.02;;;17.50;99.90;;;;;;5015195;28;20046;-80
2023/07/24 00:43:42;;;;;;;13.85;11.25;;;17.40;99.90;;;;;;4972946;28;20041;-80
2023/07/24 00:46:10;;;;;;;13.50;11.32;;;17.40;99.90;;;;;;4981297;28;20042;-80
2023/07/24 00:48:36;;;;;;;12.85;10.70;;;17.40;99.90;;;;;;4990394;28;20525;-80
2023/07/24 00:51:02;;;;;;;12.45;10.60;;;17.30;99.90;;;;;;4965633;28;20046;-80
2023/07/24 00:53:27;;;;;;;12.63;10.43;;;17.30;99.90;;;;;;5010790;28;20613;-80
2023/07/24 00:55:53;;;;;;;12.18;10.25;;;17.30;99.90;;;;;;4981484;28;20547;-80
2023/07/24 00:58:19;;;;;;;12.65;10.50;;;17.30;99.90;;;;;;4967460;28;20077;-80
2023/07/24 01:00:45;;;;;;;12.25;10.98;;;17.20;99.90;;;;;;5025624;28;20058;-80
2023/07/24 01:03:12;;;;;;;13.88;11.25;;;17.20;99.90;;;;;;4977437;28;20541;-80
2023/07/24 01:05:38;;;;;;;11.88;10.15;;;17.20;99.90;;;;;;4987413;28;20032;-80
2023/07/24 01:08:04;;;;;;;11.57;9.75;;;17.20;99.90;;;;;;4984036;28;20050;-80
2023/07/24 01:10:30;;;;;;;12.27;9.40;;;17.20;99.90;;;;;;5041024;28;20131;-80
2023/07/24 01:12:59;;;;;;;11.43;10.02;;;17.20;99.90;;;;;;4995132;28;20043;-80
2023/07/24 01:15:33;;;;;;;11.07;9.88;;;17.10;99.90;;;;;;4964064;28;20050;-80
2023/07/24 01:18:22;;;;;;;13.60;9.30;;;17.10;99.90;;;;;;4963095;28;20031;-80
2023/07/24 01:20:50;;;;;;;11.88;9.30;;;17.10;99.90;;;;;;4978204;28;20046;-80
2023/07/24 01:23:35;;;;;;;10.90;8.88;;;17.10;99.90;;;;;;4984977;28;20039;-80
2023/07/24 01:26:04;;;;;;;10.23;8.90;;;17.10;99.90;;;;;;5028092;28;20038;-80
2023/07/24 01:28:30;;;;;;;10.40;8.65;;;17.10;99.90;;;;;;4997461;28;20377;-80
2023/07/24 01:30:57;;;;;;;12.07;8.48;;;17.20;99.90;;;;;;4995391;28;20072;-80
2023/07/24 01:33:23;;;;;;;11.60;8.48;;;17.20;99.90;;;;;;4963183;28;20120;-80
2023/07/24 01:35:53;;;;;;;10.55;8.43;;;17.20;99.90;;;;;;5005151;28;20494;-80
2023/07/24 01:38:19;;;;;;;12.18;8.55;;;17.20;99.90;;;;;;5070850;28;20168;-80
2023/07/24 01:40:45;;;;;;;10.55;8.63;;;17.10;99.90;;;;;;4981970;28;20070;-80
2023/07/24 01:43:11;;;;;;;10.63;7.90;;;17.10;99.90;;;;;;4986088;28;20087;-80
2023/07/24 01:45:36;;;;;;;11.35;8.63;;;17.10;99.90;;;;;;5066939;28;20462;-80
2023/07/24 01:48:04;;;;;;;10.82;8.50;;;17.00;99.90;;;;;;5011463;28;20090;-80
2023/07/24 01:50:29;;;;;;;10.32;8.45;;;17.10;99.90;;;;;;4980588;28;20034;-80
2023/07/24 01:52:55;;;;;;;12.20;8.88;;;17.10;99.90;;;;;;4979922;28;20117;-80
2023/07/24 01:55:20;;;;;;;10.15;8.27;;;17.10;99.90;;;;;;4970219;28;20042;-80
2023/07/24 01:57:46;;;;;;;10.88;8.80;;;17.20;99.90;;;;;;5034751;28;20422;-80
2023/07/24 02:00:12;;;;;;;10.68;9.07;;;17.10;99.90;;;;;;4980963;28;20099;-80
2023/07/24 02:02:38;;;;;;;10.32;8.93;;;17.00;99.90;;;;;;4998560;28;20069;-80
2023/07/24 02:05:04;;;;;;;11.43;8.50;;;17.00;99.90;;;;;;5001652;28;20501;-80
2023/07/24 02:07:29;;;;;;;14.32;10.65;;;17.00;99.90;;;;;;5012742;28;20038;-81
2023/07/24 02:09:55;;;;;;;17.45;10.93;;;17.00;99.90;;;;;;5021913;28;20458;-81
2023/07/24 02:12:20;;;;;;;17.85;12.65;;;17.00;99.90;;;;;;5012910;28;20034;-81
2023/07/24 02:14:49;;;;;;;15.73;12.20;;;17.00;99.90;;;;;;5043287;28;20032;-80
2023/07/24 02:17:15;;;;;;;16.15;11.45;;;17.00;99.90;;;;;;4978335;28;20043;-80
2023/07/24 02:19:41;;;;;;;14.80;11.13;;;17.00;99.90;;;;;;4999846;28;20060;-80
2023/07/24 02:22:07;;;;;;;15.45;11.27;;;17.00;99.90;;;;;;4985097;28;20066;-80
2023/07/24 02:24:32;;;;;;;14.77;11.18;;;17.00;99.90;;;;;;5011301;28;20104;-80
2023/07/24 02:26:58;;;;;;;16.02;12.00;;;17.00;99.90;;;;;;4975158;28;20420;-80
2023/07/24 02:29:24;;;;;;;14.90;12.02;;;17.00;99.90;;;;;;5022725;28;20072;-80
2023/07/24 02:31:50;;;;;;;14.98;11.27;;;17.00;99.90;;;;;;4982282;28;20039;-80
2023/07/24 02:34:16;;;;;;;14.35;11.02;;;17.00;99.90;;;;;;4981265;28;20042;-80
2023/07/24 02:36:41;;;;;;;15.07;11.95;;;17.10;99.90;;;;;;4975585;28;20065;-80
2023/07/24 02:39:08;;;;;;;18.85;11.68;;;17.00;99.90;;;;;;4982278;28;20042;-80
2023/07/24 02:41:33;;;;;;;15.35;11.07;;;17.00;99.90;;;;;;4981079;28;20038;-80
2023/07/24 02:43:59;;;;;;;13.10;10.13;;;17.10;99.90;;;;;;4977193;28;20099;-80
2023/07/24 02:46:24;;;;;;;12.30;9.55;;;17.10;99.90;;;;;;4982399;28;20038;-80
2023/07/24 02:48:51;;;;;;;15.23;9.57;;;17.00;99.90;;;;;;5048199;28;20039;-80
2023/07/24 02:51:16;;;;;;;11.05;9.15;;;17.10;99.90;;;;;;4971138;28;20498;-80
2023/07/24 02:53:42;;;;;;;13.02;9.88;;;17.10;99.90;;;;;;4989513;28;20047;-80
2023/07/24 02:56:08;;;;;;;12.40;9.15;;;17.10;99.90;;;;;;5032475;28;20098;-80
2023/07/24 02:58:33;;;;;;;11.68;9.02;;;17.10;99.90;;;;;;4979991;28;20107;-80
2023/07/24 03:01:06;;;;;;;11.23;8.98;;;17.10;99.90;;;;;;4975922;28;20042;-80
2023/07/24 03:03:33;;;;;;;11.77;8.32;;;17.10;99.90;;;;;;4978139;28;20056;-80
2023/07/24 03:05:59;;;;;;;11.77;9.25;;;17.10;99.90;;;;;;4979704;28;20050;-80
2023/07/24 03:08:25;;;;;;;12.13;8.88;;;17.20;99.90;;;;;;4990790;28;20040;-80
2023/07/24 03:10:50;;;;;;;12.70;8.75;;;17.10;99.90;;;;;;5005083;28;20379;-80
2023/07/24 03:13:16;;;;;;;12.82;9.75;;;17.20;99.90;;;;;;4980547;28;20069;-80
2023/07/24 03:15:41;;;;;;;12.20;9.45;;;17.20;99.90;;;;;;4974204;28;20424;-80
2023/07/24 03:18:07;;;;;;;12.30;9.10;;;17.10;99.90;;;;;;5012843;28;20064;-80
2023/07/24 03:20:33;;;;;;;11.85;8.98;;;17.10;99.90;;;;;;5037387;28;20093;-80
2023/07/24 03:22:58;;;;;;;13.57;10.30;;;17.20;99.90;;;;;;4960019;28;20039;-80
2023/07/24 03:25:24;;;;;;;13.80;9.85;;;17.00;99.90;;;;;;4998970;28;20043;-80
2023/07/24 03:27:49;;;;;;;12.38;10.23;;;17.20;99.90;;;;;;4998714;28;20057;-80
2023/07/24 03:30:15;;;;;;;12.88;10.32;;;17.10;99.90;;;;;;4983802;28;20046;-80
2023/07/24 03:32:41;;;;;;;14.70;10.57;;;17.10;99.90;;;;;;4980098;28;20042;-80
2023/07/24 03:35:07;;;;;;;13.20;10.32;;;17.00;99.90;;;;;;4980268;28;20042;-80
2023/07/24 03:37:35;;;;;;;13.57;9.27;;;17.00;99.90;;;;;;5010829;28;20053;-80
2023/07/24 03:40:01;;;;;;;12.43;9.77;;;17.00;99.90;;;;;;5005871;28;20054;-80
2023/07/24 03:42:28;;;;;;;12.82;10.38;;;17.00;99.90;;;;;;5006740;28;20407;-80
2023/07/24 03:44:54;;;;;;;15.10;10.77;;;16.90;99.90;;;;;;4965339;28;20042;-80
2023/07/24 03:47:20;;;;;;;17.67;11.25;;;16.90;99.90;;;;;;5003435;28;20076;-80
2023/07/24 03:49:46;;;;;;;13.35;11.60;;;16.90;99.90;;;;;;4978778;28;20046;-80
2023/07/24 03:52:11;;;;;;;13.65;11.25;;;16.90;99.90;;;;;;5044942;28;20056;-80
2023/07/24 03:54:37;;;;;;;14.05;11.32;;;16.90;99.90;;;;;;4985552;28;20505;-80
2023/07/24 03:57:03;;;;;;;14.05;11.52;;;16.90;99.90;;;;;;5000387;28;20046;-80
2023/07/24 03:59:30;;;;;;;13.80;10.93;;;16.90;99.90;;;;;;5004946;28;20028;-80
2023/07/24 04:01:55;;;;;;;14.95;11.07;;;16.90;99.90;;;;;;4985269;28;20034;-80
2023/07/24 04:04:21;;;;;;;15.73;11.77;;;16.90;99.90;;;;;;5002702;28;20058;-80
2023/07/24 04:06:47;;;;;;;15.65;12.05;;;16.90;99.90;;;;;;5015809;28;20047;-80
2023/07/24 04:09:14;;;;;;;15.02;11.98;;;16.90;99.90;;;;;;4971496;28;20341;-80
2023/07/24 04:11:40;;;;;;;17.67;12.05;;;16.80;99.90;;;;;;5029342;28;20038;-80
2023/07/24 04:14:06;;;;;;;14.48;11.77;;;16.90;99.90;;;;;;5053179;28;20036;-80
2023/07/24 04:16:32;;;;;;;14.57;12.13;;;16.90;99.90;;;;;;4998824;28;20397;-78
2023/07/24 04:18:57;;;;;;;17.40;12.38;;;16.90;99.90;;;;;;4997048;28;20036;-79
2023/07/24 04:21:23;;;;;;;14.57;12.15;;;16.90;99.90;;;;;;5007491;28;20476;-79
2023/07/24 04:23:49;;;;;;;15.38;11.77;;;16.90;99.90;;;;;;4969503;28;20483;-79
2023/07/24 04:26:14;;;;;;;14.85;11.10;;;16.90;99.90;;;;;;5016122;28;20081;-80
2023/07/24 04:28:40;;;;;;;14.40;11.95;;;16.90;99.90;;;;;;4979789;28;20543;-78
2023/07/24 04:31:05;;;;;;;16.02;11.40;;;17.00;99.90;;;;;;5004132;28;20077;-79
2023/07/24 04:33:31;;;;;;;15.30;11.25;;;16.90;99.90;;;;;;4966876;28;20129;-79
2023/07/24 04:35:56;;;;;;;11.80;10.45;;;16.90;99.90;;;;;;5006109;28;20042;-79
2023/07/24 04:38:22;;;;;;;14.55;11.10;;;16.90;99.90;;;;;;5016855;28;20417;-79
2023/07/24 04:40:48;;;;;;;13.10;11.07;;;16.90;99.90;;;;;;5033381;28;20036;-78
2023/07/24 04:43:14;;;;;;;14.05;11.00;;;16.90;99.90;;;;;;5027210;28;20050;-77
2023/07/24 04:45:39;;;;;;;12.85;11.10;;;16.90;99.90;;;;;;5003128;28;20039;-77
2023/07/24 04:48:05;;;;;;;13.70;10.88;;;16.90;99.90;;;;;;4989974;28;20046;-77
2023/07/24 04:50:31;;;;;;;15.13;11.13;;;16.90;99.90;;;;;;5002593;28;20498;-77
2023/07/24 04:52:56;;;;;;;12.70;10.90;;;16.90;99.90;;;;;;5055667;28;20122;-78
2023/07/24 04:55:22;;;;;;;12.57;10.68;;;16.90;99.90;;;;;;5041042;28;20035;-79
2023/07/24 04:57:48;;;;;;;13.52;11.68;;;17.00;99.90;;;;;;4996532;28;20041;-78
2023/07/24 05:00:14;;;;;;;12.77;10.27;;;16.90;99.90;;;;;;5005768;28;20042;-78
2023/07/24 05:02:40;;;;;;;12.80;10.95;;;16.90;99.90;;;;;;4993534;28;20111;-78
2023/07/24 05:05:06;;;;;;;15.15;11.40;;;16.90;99.90;;;;;;4976238;28;20125;-78
2023/07/24 05:07:32;;;;;;;16.63;12.43;;;16.90;99.90;;;;;;4981505;28;20125;-78
2023/07/24 05:09:57;;;;;;;17.33;14.18;;;17.00;99.90;;;;;;4987397;28;20068;-79
2023/07/24 05:12:23;;;;;;;20.35;15.82;;;16.90;99.90;;;;;;4989307;28;20411;-81
2023/07/24 05:14:49;;;;;;;21.92;17.38;;;17.00;99.90;;;;;;4992958;28;20517;-79
2023/07/24 05:17:14;;;;;;;22.08;17.48;;;17.00;99.90;;;;;;4984668;28;20041;-80
2023/07/24 05:19:40;;;;;;;18.92;15.88;;;17.00;99.90;;;;;;4975620;28;20061;-79
2023/07/24 05:22:06;;;;;;;17.80;14.68;;;17.00;99.90;;;;;;5024035;28;20045;-79
2023/07/24 05:24:32;;;;;;;16.25;13.52;;;17.10;99.90;;;;;;4988914;28;20046;-79
2023/07/24 05:26:57;;;;;;;16.08;13.20;;;17.10;99.90;;;;;;4972168;28;20034;-80
2023/07/24 05:29:23;;;;;;;15.57;12.88;;;17.10;99.90;;;;;;4980469;28;20100;-79
2023/07/24 05:31:48;;;;;;;13.10;11.52;;;17.10;99.90;;;;;;4986454;28;20041;-80
2023/07/24 05:34:14;;;;;;;14.50;12.13;;;17.20;99.90;;;;;;5012477;28;20514;-79
2023/07/24 05:36:41;;;;;;;14.88;12.30;;;17.20;99.90;;;;;;4973249;28;20050;-79
2023/07/24 05:39:07;;;;;;;14.52;12.20;;;17.30;99.90;;;;;;5056930;28;20411;-79
2023/07/24 05:41:32;;;;;;;14.05;11.50;;;17.40;99.90;;;;;;4988272;28;20050;-79
2023/07/24 05:43:58;;;;;;;13.60;10.77;;;17.30;99.90;;;;;;4971110;28;20042;-79
2023/07/24 05:46:23;;;;;;;14.10;11.05;;;17.40;99.90;;;;;;4992261;28;20063;-79
2023/07/24 05:48:49;;;;;;;13.60;10.45;;;17.40;99.90;;;;;;4975117;28;20139;-79
2023/07/24 05:51:14;;;;;;;15.23;10.88;;;17.40;99.90;;;;;;5018689;28;20042;-79
2023/07/24 05:53:40;;;;;;;13.27;10.02;;;17.40;99.90;;;;;;5029526;28;20039;-79
2023/07/24 05:56:06;;;;;;;14.43;10.80;;;17.40;99.90;;;;;;4974182;28;20390;-79
2023/07/24 05:58:31;;;;;;;14.15;10.73;;;17.40;99.90;;;;;;4974014;28;20038;-79
2023/07/24 06:00:57;;;;;;;13.63;10.80;;;17.40;99.90;;;;;;4973790;28;20038;-79
2023/07/24 06:03:24;;;;;;;15.52;10.52;;;17.40;99.90;;;;;;5008751;28;20135;-79
2023/07/24 06:05:53;;;;;;;11.82;10.52;;;17.40;99.90;;;;;;4996693;28;20072;-80
2023/07/24 06:08:20;;;;;;;13.02;10.57;;;17.30;99.90;;;;;;4990326;28;20063;-80
2023/07/24 06:10:49;;;;;;;15.88;10.25;;;17.30;99.90;;;;;;4973887;28;20053;-80
2023/07/24 06:13:18;;;;;;;11.88;10.18;;;17.40;99.90;;;;;;4988644;28;20042;-79
2023/07/24 06:15:44;;;;;;;13.10;10.45;;;17.50;99.90;;;;;;5001746;28;20118;-79
2023/07/24 06:18:10;;;;;;;14.18;10.30;;;17.50;99.90;;;;;;5002982;28;20078;-79
2023/07/24 06:20:36;;;;;;;12.85;10.10;;;17.60;99.90;;;;;;5057429;28;20039;-79
2023/07/24 06:23:03;;;;;;;12.07;10.32;;;17.70;99.90;;;;;;5000892;28;20417;-79
2023/07/24 06:25:30;;;;;;;11.85;9.13;;;17.80;99.90;;;;;;5050398;28;20042;-79
2023/07/24 06:27:56;;;;;;;11.73;9.32;;;17.90;99.90;;;;;;5031875;28;20587;-79
2023/07/24 06:30:22;;;;;;;12.88;9.23;;;18.00;99.90;;;;;;5016339;28;20114;-80
2023/07/24 06:32:47;;;;;;;11.30;9.05;;;18.00;99.90;;;;;;4991650;28;20048;-79
2023/07/24 06:35:13;;;;;;;11.32;9.23;;;18.10;99.90;;;;;;5010185;28;20042;-79
2023/07/24 06:37:39;;;;;;;11.10;9.35;;;18.10;99.90;;;;;;4962931;28;20035;-80
2023/07/24 06:40:06;;;;;;;13.82;10.00;;;18.20;99.90;;;;;;4971287;28;20109;-79
2023/07/24 06:42:32;;;;;;;12.45;9.65;;;18.20;99.90;;;;;;5007065;28;20038;-79
2023/07/24 06:44:57;;;;;;;11.50;9.50;;;18.30;99.90;;;;;;4968121;28;20073;-79
2023/07/24 06:47:23;;;;;;;15.52;9.70;;;18.40;99.90;;;;;;4967311;28;20525;-79
2023/07/24 06:49:48;;;;;;;17.83;9.95;;;18.40;99.90;;;;;;4998404;28;20092;-79
2023/07/24 06:52:14;;;;;;;13.75;9.50;;;18.40;99.90;;;;;;4981709;28;20086;-79
2023/07/24 06:54:40;;;;;;;13.77;9.48;;;18.40;99.90;;;;;;4991949;28;20040;-79
2023/07/24 06:57:05;;;;;;;14.77;9.65;;;18.50;99.90;;;;;;4967049;28;20503;-79
2023/07/24 06:59:31;;;;;;;12.50;9.07;;;18.60;99.90;;;;;;4972517;28;20072;-79
2023/07/24 07:01:57;;;;;;;13.07;10.02;;;18.50;99.90;;;;;;4963960;28;20039;-79
2023/07/24 07:04:22;;;;;;;12.20;9.40;;;18.50;99.90;;;;;;4997062;28;20042;-80
2023/07/24 07:06:48;;;;;;;16.10;9.30;;;18.50;99.90;;;;;;4971162;28;20042;-80
2023/07/24 07:09:14;;;;;;;13.05;8.85;;;18.50;99.90;;;;;;4970883;28;20042;-79
2023/07/24 07:11:39;;;;;;;13.43;8.43;;;18.50;99.90;;;;;;5013335;28;20039;-78
2023/07/24 07:14:08;;;;;;;12.27;8.73;;;18.60;99.90;;;;;;4994067;28;20486;-77
2023/07/24 07:16:34;;;;;;;13.05;9.50;;;18.60;99.90;;;;;;5004800;28;20042;-78
2023/07/24 07:18:59;;;;;;;12.63;8.77;;;18.60;99.90;;;;;;4984995;28;20495;-77
2023/07/24 07:21:25;;;;;;;12.43;8.85;;;18.60;99.90;;;;;;5018184;28;20035;-77
2023/07/24 07:23:51;;;;;;;12.65;8.85;;;18.60;99.90;;;;;;4998821;28;20044;-77
2023/07/24 07:26:17;;;;;;;15.07;10.20;;;18.70;99.90;;;;;;4969302;28;20047;-77
2023/07/24 07:28:44;;;;;;;15.60;10.15;;;18.70;99.90;;;;;;4981786;28;20042;-78
2023/07/24 07:31:10;;;;;;;13.05;9.50;;;18.70;99.90;;;;;;4998543;28;20399;-77
2023/07/24 07:33:36;;;;;;;16.35;10.18;;;18.80;99.90;;;;;;4967871;28;20042;-77
2023/07/24 07:36:03;;;;;;;16.27;9.75;;;18.80;99.90;;;;;;4963746;28;20085;-78
2023/07/24 07:38:29;;;;;;;14.00;9.27;;;18.90;99.90;;;;;;4994490;28;20391;-77
2023/07/24 07:40:54;;;;;;;14.38;9.90;;;19.00;99.90;;;;;;5006988;28;20042;-77
2023/07/24 07:43:20;;;;;;;14.93;9.70;;;19.00;99.90;;;;;;5049814;28;20536;-78
2023/07/24 07:45:47;;;;;;;12.65;9.57;;;19.10;99.90;;;;;;4991525;28;20046;-78
2023/07/24 07:48:12;;;;;;;14.48;9.35;;;19.10;99.90;;;;;;4977005;28;20065;-78
2023/07/24 07:50:38;;;;;;;13.57;8.63;;;19.20;99.90;;;;;;5010906;28;20050;-79
2023/07/24 07:53:03;;;;;;;13.93;8.80;;;19.30;99.90;;;;;;4967738;28;20030;-78
2023/07/24 07:55:29;;;;;;;16.90;9.77;;;19.30;99.90;;;;;;4964066;28;20574;-78
2023/07/24 07:57:55;;;;;;;13.73;9.13;;;19.30;99.90;;;;;;4959968;28;20375;-78
2023/07/24 08:00:20;;;;;;;18.00;10.52;;;19.30;99.90;;;;;;4995121;28;20121;-78
2023/07/24 08:02:46;;;;;;;14.60;9.80;;;19.30;99.90;;;;;;4970011;28;20051;-78
2023/07/24 08:05:12;;;;;;;12.60;8.93;;;19.30;99.90;;;;;;5040031;28;20506;-78
2023/07/24 08:07:37;;;;;;;18.23;8.57;;;19.30;99.90;;;;;;5047103;28;20030;-78
2023/07/24 08:10:03;;;;;;;13.52;8.48;;;19.30;99.90;;;;;;4983836;28;20050;-78
2023/07/24 08:12:29;;;;;;;14.00;9.30;;;19.30;99.90;;;;;;5009954;28;20032;-78
2023/07/24 08:14:55;;;;;;;13.38;8.15;;;19.30;99.90;;;;;;5002805;28;20043;-79
2023/07/24 08:17:21;;;;;;;14.88;9.52;;;19.40;99.90;;;;;;4987606;28;20119;-78
2023/07/24 08:19:47;;;;;;;13.63;8.77;;;19.40;99.90;;;;;;5011451;28;20479;-78
2023/07/24 08:22:12;;;;;;;14.25;8.23;;;19.50;99.90;;;;;;5011688;28;20498;-78
2023/07/24 08:24:38;;;;;;;12.63;8.63;;;19.70;99.90;;;;;;5013392;28;20034;-78
2023/07/24 08:27:04;;;;;;;11.60;8.38;;;19.80;99.90;;;;;;5002912;28;20038;-78
2023/07/24 08:29:29;;;;;;;15.18;8.98;;;19.90;99.90;;;;;;5033416;28;20074;-78
2023/07/24 08:31:55;;;;;;;11.73;8.65;;;20.10;99.90;;;;;;5006005;28;20038;-78
2023/07/24 08:34:21;;;;;;;11.77;8.63;;;20.10;99.90;;;;;;4976766;28;20146;-78
2023/07/24 08:36:46;;;;;;;12.60;8.55;;;20.40;99.90;;;;;;4983422;28;20041;-78
2023/07/24 08:39:12;;;;;;;11.70;8.15;;;20.50;99.90;;;;;;4990803;28;20041;-78
2023/07/24 08:41:38;;;;;;;13.23;8.43;;;20.60;99.90;;;;;;5028790;28;20036;-79
2023/07/24 08:44:07;;;;;;;10.02;7.85;;;20.60;99.90;;;;;;5037883;28;20039;-79
2023/07/24 08:46:36;;;;;;;10.93;7.95;;;20.60;99.90;;;;;;4991276;28;20047;-78
2023/07/24 08:49:03;;;;;;;13.18;8.55;;;20.50;99.90;;;;;;4985502;28;20042;-78
2023/07/24 08:51:30;;;;;;;13.70;8.68;;;20.40;99.90;;;;;;5028442;28;20440;-78
2023/07/24 08:53:57;;;;;;;13.63;7.75;;;20.40;99.90;;;;;;4969670;28;20052;-80
2023/07/24 08:56:22;;;;;;;14.90;8.48;;;20.40;99.90;;;;;;5035963;28;20115;-80
2023/07/24 08:58:48;;;;;;;;;;;20.40;99.90;;;;;;5023254;28;20115;-80
2023/07/24 09:01:14;;;;;;;13.73;7.55;;;20.60;99.90;;;;;;5061813;28;19944;-80
2023/07/24 09:03:40;;;;;;;12.88;7.30;;;20.80;99.90;;;;;;5021419;28;20046;-80
2023/07/24 09:06:09;;;;;;;13.05;8.18;;;21.10;99.90;;;;;;5055445;28;20077;-80
2023/07/24 09:08:39;;;;;;;;;;;21.50;99.90;;;;;;5032232;28;20063;-80
2023/07/24 09:11:06;;;;;;;14.13;7.80;;;21.60;99.90;;;;;;5052677;28;19922;-80
2023/07/24 09:13:32;;;;;;;15.40;7.80;;;21.50;99.90;;;;;;4984760;28;20054;-80
2023/07/24 09:15:59;;;;;;;11.68;7.65;;;21.40;99.90;;;;;;4974492;28;20042;-80
2023/07/24 09:18:25;;;;;;;13.13;7.05;;;21.30;99.90;;;;;;4983813;28;20046;-80
2023/07/24 09:20:51;;;;;;;14.50;8.18;;;21.20;99.90;;;;;;4973702;28;20491;-80
2023/07/24 09:23:28;;;;;;;13.23;8.10;;;21.10;99.90;;;;;;4996775;28;20047;-80
2023/07/24 09:25:54;;;;;;;14.05;8.65;;;21.10;99.90;;;;;;5002065;28;20062;-80
2023/07/24 09:28:20;;;;;;;11.95;8.02;;;21.00;99.90;;;;;;5016505;28;20042;-80
2023/07/24 09:31:02;;;;;;;10.20;7.60;;;20.90;99.90;;;;;;4972081;28;20039;-80
2023/07/24 09:33:36;;;;;;;11.90;8.55;;;20.90;99.90;;;;;;4980475;28;20053;-81
2023/07/24 09:36:04;;;;;;;12.63;7.82;;;20.80;99.90;;;;;;5011006;28;20081;-80
2023/07/24 09:38:29;;;;;;;11.80;7.53;;;20.80;99.90;;;;;;4985294;28;20045;-80
2023/07/24 09:40:56;;;;;;;12.77;8.07;;;20.90;99.90;;;;;;4965773;28;20046;-80
2023/07/24 09:43:25;;;;;;;13.32;7.22;;;21.10;99.90;;;;;;5056569;28;20125;-81
2023/07/24 09:45:53;;;;;;;10.30;7.85;;;21.40;99.90;;;;;;4981474;28;20131;-81
2023/07/24 09:48:20;;;;;;;12.73;7.28;;;21.50;99.90;;;;;;5039337;28;20800;-81
2023/07/24 09:50:48;;;;;;;12.63;7.72;;;21.40;99.90;;;;;;5046835;28;20393;-81
2023/07/24 09:53:36;;;;;;;15.35;7.43;;;21.20;99.90;;;;;;4972005;28;20149;-80
2023/07/24 09:56:05;;;;;;;10.85;6.85;;;21.20;99.90;;;;;;4971608;28;20039;-81
2023/07/24 09:58:33;;;;;;;11.48;6.53;;;21.50;99.90;;;;;;4955074;28;20494;-80
2023/07/24 10:00:59;;;;;;;11.43;6.40;;;21.80;99.90;;;;;;4990518;28;20113;-81
2023/07/24 10:03:26;;;;;;;10.23;6.50;;;21.90;99.90;;;;;;5001184;28;20062;-81
2023/07/24 10:05:53;;;;;;;9.00;6.32;;;22.10;99.90;;;;;;5062154;28;20048;-81
2023/07/24 10:08:19;;;;;;;10.02;6.43;;;22.20;99.90;;;;;;5006211;28;20096;-81
2023/07/24 10:10:45;;;;;;;9.60;6.25;;;22.30;99.90;;;;;;5046318;28;20472;-81
2023/07/24 10:13:14;;;;;;;13.80;6.25;;;22.50;99.90;;;;;;5034772;28;20048;-82
2023/07/24 10:15:42;;;;;;;11.88;6.22;;;22.70;99.90;;;;;;5037788;28;20035;-82
2023/07/24 10:18:08;;;;;;;;;;;22.90;99.90;;;;;;5022286;28;20089;-82
2023/07/24 10:20:35;;;;;;;;;;;23.10;99.90;;;;;;5055811;28;19923;-81
2023/07/24 10:23:01;;;;;;;;;;;23.30;99.90;;;;;;5058711;28;19916;-81
2023/07/24 10:25:31;;;;;;;;;;;23.50;99.90;;;;;;5008288;28;19973;-80
2023/07/24 10:28:01;;;;;;;;;;;23.80;99.90;;;;;;5015565;28;20008;-80
2023/07/24 10:30:29;;;;;;;;;;;23.80;99.90;;;;;;4965358;28;20408;-80
2023/07/24 10:33:02;;;;;;;;;;;24.00;99.90;;;;;;4995753;28;19923;-80
2023/07/24 10:35:36;;;;;;;;;;;24.20;99.90;;;;;;5003751;28;20308;-79
2023/07/24 10:38:02;;;;;;;;;;;24.20;99.90;;;;;;5023141;28;20015;-81
2023/07/24 10:40:27;;;;;;;;;;;24.10;99.90;;;;;;4953498;28;19918;-79
2023/07/24 10:43:20;;;;;;;8.60;5.25;;;23.90;99.90;;;;;;4989432;28;20029;-80
2023/07/24 10:45:48;;;;;;;8.07;5.18;;;23.70;99.90;;;;;;4999434;28;20058;-80
2023/07/24 10:48:18;;;;;;;8.95;5.20;;;23.50;99.90;;;;;;5021506;28;20476;-80
2023/07/24 10:50:46;;;;;;;9.50;4.97;;;23.50;99.90;;;;;;4983558;28;20038;-80
2023/07/24 10:53:15;;;;;;;9.88;5.38;;;23.50;99.90;;;;;;4976101;28;20050;-80
2023/07/24 10:55:41;;;;;;;9.27;5.47;;;23.40;99.90;;;;;;5007929;28;20035;-80
2023/07/24 10:58:08;;;;;;;9.07;5.35;;;23.20;99.90;;;;;;4973286;28;20086;-80
2023/07/24 11:00:34;;;;;;;9.68;5.80;;;23.10;99.90;;;;;;5045867;22;20430;-79
2023/07/24 11:02:59;;;;;;;8.77;5.20;;;23.00;99.90;;;;;;4958304;28;20054;-78
2023/07/24 11:05:26;;;;;;;11.05;5.63;;;23.10;99.90;;;;;;4952462;28;20039;-77
2023/07/24 11:07:51;;;;;;;8.00;5.65;;;23.10;99.90;;;;;;4947906;28;20050;-77
2023/07/24 11:10:19;;;;;;;10.45;6.32;;;23.20;99.90;;;;;;4955407;28;20050;-79
2023/07/24 11:12:44;;;;;;;9.88;5.88;;;23.20;99.90;;;;;;4954637;28;20043;-79
2023/07/24 11:15:12;;;;;;;9.00;6.05;;;23.10;99.90;;;;;;4968038;28;20040;-79
2023/07/24 11:17:41;;;;;;;8.98;5.78;;;23.00;99.90;;;;;;4956726;28;20100;-79
2023/07/24 11:20:08;;;;;;;8.00;5.20;;;22.90;99.90;;;;;;4980629;28;20031;-78
2023/07/24 11:22:34;;;;;;;10.07;5.80;;;23.00;99.90;;;;;;4964383;28;20100;-78
2023/07/24 11:25:01;;;;;;;10.93;6.35;;;23.00;99.90;;;;;;4960949;28;20438;-79
2023/07/24 11:27:27;;;;;;;10.25;5.97;;;23.00;99.90;;;;;;4957706;28;20065;-80
2023/07/24 11:29:52;;;;;;;9.57;6.13;;;23.00;99.90;;;;;;4957754;28;20038;-79
2023/07/24 11:32:21;;;;;;;10.20;6.25;;;23.00;99.90;;;;;;4967030;28;20046;-78
2023/07/24 11:34:52;;;;;;;10.25;6.43;;;22.80;99.90;;;;;;4968460;28;20085;-78
2023/07/24 11:37:18;;;;;;;10.88;6.20;;;22.70;99.90;;;;;;4941895;28;20055;-79
2023/07/24 11:39:58;;;;;;;10.55;6.38;;;22.60;99.90;;;;;;4951811;28;20048;-79
2023/07/24 11:42:27;;;;;;;9.02;6.00;;;22.50;99.90;;;;;;4959140;28;20042;-79
2023/07/24 11:44:53;;;;;;;8.63;5.40;;;22.60;99.90;;;;;;4967833;28;20039;-78
2023/07/24 11:47:19;;;;;;;8.60;5.70;;;22.70;99.90;;;;;;4973692;28;20441;-78
2023/07/24 11:49:55;;;;;;;11.90;5.90;;;22.70;99.90;;;;;;4972315;28;20069;-79
2023/07/24 11:52:21;;;;;;;11.02;6.00;;;22.70;99.90;;;;;;4959643;28;20046;-78
2023/07/24 11:54:57;;;;;;;7.57;5.85;;;22.80;99.90;;;;;;4960639;28;20509;-79
2023/07/24 11:57:23;;;;;;;10.20;5.57;;;23.00;99.90;;;;;;4955532;28;20050;-78
2023/07/24 11:59:48;;;;;;;9.02;5.72;;;23.20;99.90;;;;;;4973553;28;20038;-78
2023/07/24 12:02:14;;;;;;;10.63;5.85;;;23.40;99.90;;;;;;4969567;28;20043;-79
2023/07/24 12:04:40;;;;;;;9.27;5.60;;;23.60;99.90;;;;;;4992275;28;20055;-79
2023/07/24 12:07:09;;;;;;;10.07;5.65;;;23.90;99.90;;;;;;4988795;28;20039;-78
2023/07/24 12:09:34;;;;;;;8.48;4.90;;;24.20;99.60;;;;;;4970192;28;20054;-79
2023/07/24 12:12:02;;;;;;;8.00;4.65;;;24.40;98.60;;;;;;4997171;28;20043;-78
2023/07/24 12:14:28;;;;;;;8.55;5.32;;;24.40;97.80;;;;;;4959273;28;20093;-79
2023/07/24 12:17:06;;;;;;;10.07;5.93;;;24.30;97.10;;;;;;5003816;28;20506;-78
2023/07/24 12:19:31;;;;;;;9.65;5.40;;;24.20;97.20;;;;;;4955675;28;20043;-79
2023/07/24 12:21:57;;;;;;;9.63;5.43;;;24.10;97.80;;;;;;4955996;28;20039;-79
2023/07/24 12:24:23;;;;;;;8.00;5.10;;;24.00;97.60;;;;;;4994881;28;20059;-79
2023/07/24 12:26:48;;;;;;;7.60;4.80;;;24.00;97.60;;;;;;4987315;28;20456;-78
2023/07/24 12:29:14;;;;;;;11.85;5.90;;;24.00;97.40;;;;;;4975940;28;20035;-79
2023/07/24 12:31:40;;;;;;;10.63;6.55;;;23.80;97.40;;;;;;4956447;28;20120;-79
2023/07/24 12:34:06;;;;;;;11.90;6.72;;;23.60;97.40;;;;;;4958991;28;20034;-79
2023/07/24 12:36:32;;;;;;;10.80;6.38;;;23.40;97.90;;;;;;4965626;28;20121;-78